createdAt,value
2023-03-27T00:02:24.087Z,0.40
2023-03-27T00:04:50.857Z,0.30
2023-03-27T00:07:19.919Z,0.40
2023-03-27T00:09:46.626Z,0.30
2023-03-27T00:12:13.328Z,0.40
2023-03-27T00:14:42.149Z,0.30
2023-03-27T00:17:09.396Z,0.20
2023-03-27T00:19:38.686Z,0.20
2023-03-27T00:22:10.704Z,0.30
2023-03-27T00:24:37.453Z,0.20
2023-03-27T00:27:04.239Z,0.33
2023-03-27T00:29:33.410Z,0.20
2023-03-27T00:32:00.172Z,0.10
2023-03-27T00:34:27.099Z,0.30
2023-03-27T00:36:53.751Z,0.20
2023-03-27T00:39:23.677Z,0.10
2023-03-27T00:41:55.285Z,0.10
2023-03-27T00:44:27.298Z,0.20
2023-03-27T00:46:55.225Z,0.20
2023-03-27T00:49:23.777Z,0.20
2023-03-27T00:51:53.082Z,0.10
2023-03-27T00:54:26.643Z,0.17
2023-03-27T00:57:08.523Z,0.20
2023-03-27T00:59:40.833Z,0.10
2023-03-27T01:02:09.270Z,0.27
2023-03-27T01:04:40.277Z,0.10
2023-03-27T01:07:11.163Z,0.20
2023-03-27T01:09:38.765Z,0.20
2023-03-27T01:12:26.502Z,0.20
2023-03-27T01:15:20.143Z,0.10
2023-03-27T01:18:04.740Z,0.20
2023-03-27T01:21:05.893Z,0.10
2023-03-27T01:23:59.616Z,0.30
2023-03-27T01:26:51.599Z,0.30
2023-03-27T01:29:48.438Z,0.30
2023-03-27T01:32:59.337Z,0.30
2023-03-27T01:35:43.488Z,0.37
2023-03-27T01:38:44.021Z,0.20
2023-03-27T01:41:32.481Z,0.20
2023-03-27T01:44:21.987Z,0.40
2023-03-27T01:46:59.334Z,0.30
2023-03-27T01:49:34.113Z,0.60
2023-03-27T01:52:05.455Z,0.70
2023-03-27T01:54:35.984Z,0.80
2023-03-27T01:57:22.248Z,0.90
2023-03-27T02:00:17.308Z,0.93
2023-03-27T02:03:09.862Z,1.20
2023-03-27T02:05:44.451Z,1.27
2023-03-27T02:08:42.403Z,1.50
2023-03-27T02:11:09.201Z,1.53
2023-03-27T02:13:44.108Z,1.73
2023-03-27T02:16:21.885Z,1.87
2023-03-27T02:18:59.710Z,1.43
2023-03-27T02:21:26.767Z,1.70
2023-03-27T02:23:56.595Z,1.70
2023-03-27T02:26:23.841Z,1.67
2023-03-27T02:28:53.523Z,1.50
2023-03-27T02:31:41.634Z,1.50
2023-03-27T02:34:42.020Z,1.50
2023-03-27T02:37:19.097Z,1.57
2023-03-27T02:39:55.560Z,1.77
2023-03-27T02:42:42.556Z,1.40
2023-03-27T02:45:20.098Z,1.60
2023-03-27T02:47:57.180Z,1.50
2023-03-27T02:50:38.247Z,1.63
2023-03-27T02:53:06.700Z,1.63
2023-03-27T02:55:40.221Z,1.50
2023-03-27T02:58:12.439Z,1.88
2023-03-27T03:00:43.714Z,1.67
2023-03-27T03:03:18.006Z,1.90
2023-03-27T03:05:48.096Z,1.70
2023-03-27T03:08:15.196Z,1.93
2023-03-27T03:10:45.973Z,1.67
2023-03-27T03:13:12.725Z,2.30
2023-03-27T03:15:41.880Z,1.70
2023-03-27T03:18:09.135Z,1.80
2023-03-27T03:20:35.846Z,2.00
2023-03-27T03:23:02.785Z,1.80
2023-03-27T03:25:33.616Z,2.10
2023-03-27T03:28:02.891Z,1.90
2023-03-27T03:30:32.550Z,1.80
2023-03-27T03:33:00.222Z,1.50
2023-03-27T03:35:29.224Z,2.10
2023-03-27T03:37:59.292Z,1.60
2023-03-27T03:40:28.250Z,1.70
2023-03-27T03:42:57.310Z,1.30
2023-03-27T03:45:24.077Z,1.93
2023-03-27T03:47:50.780Z,1.60
2023-03-27T03:50:17.556Z,1.60
2023-03-27T03:52:46.058Z,1.50
2023-03-27T03:55:12.895Z,1.33
2023-03-27T03:57:42.073Z,1.67
2023-03-27T04:00:12.050Z,1.43
2023-03-27T04:02:43.510Z,1.50
2023-03-27T04:05:15.337Z,1.50
2023-03-27T04:07:42.295Z,1.47
2023-03-27T04:10:09.489Z,1.63
2023-03-27T04:12:36.158Z,1.58
2023-03-27T04:15:04.977Z,1.67
2023-03-27T04:17:34.210Z,1.30
2023-03-27T04:20:05.920Z,1.03
2023-03-27T04:22:37.846Z,1.37
2023-03-27T04:25:10.393Z,1.20
2023-03-27T04:27:39.708Z,1.07
2023-03-27T04:30:10.789Z,1.37
2023-03-27T04:32:37.472Z,1.33
2023-03-27T04:35:04.847Z,1.27
2023-03-27T04:37:34.021Z,1.17
2023-03-27T04:40:00.864Z,1.27
2023-03-27T04:42:30.068Z,1.53
2023-03-27T04:44:59.032Z,1.20
2023-03-27T04:47:25.700Z,1.43
2023-03-27T04:49:54.871Z,1.40
2023-03-27T04:52:21.531Z,1.23
2023-03-27T04:54:48.304Z,1.27
2023-03-27T04:57:16.969Z,1.60
2023-03-27T04:59:43.636Z,1.33
2023-03-27T05:02:10.968Z,1.40
2023-03-27T05:04:40.092Z,1.23
2023-03-27T05:07:06.833Z,1.33
2023-03-27T05:09:38.267Z,1.20
2023-03-27T05:12:05.073Z,1.70
2023-03-27T05:14:31.733Z,1.10
2023-03-27T05:17:00.788Z,1.20
2023-03-27T05:19:30.246Z,1.47
2023-03-27T05:21:59.220Z,1.30
2023-03-27T05:24:27.184Z,1.10
2023-03-27T05:26:53.960Z,1.97
2023-03-27T05:29:20.721Z,1.53
2023-03-27T05:31:47.639Z,1.33
2023-03-27T05:34:14.800Z,1.30
2023-03-27T05:36:42.818Z,1.10
2023-03-27T05:39:09.529Z,1.40
2023-03-27T05:41:38.384Z,1.20
2023-03-27T05:44:07.373Z,1.58
2023-03-27T05:46:34.100Z,1.30
2023-03-27T05:49:01.325Z,1.10
2023-03-27T05:51:29.286Z,1.53
2023-03-27T05:53:56.263Z,1.20
2023-03-27T05:56:23.077Z,1.17
2023-03-27T05:58:49.803Z,1.40
2023-03-27T06:01:16.532Z,1.27
2023-03-27T06:03:43.302Z,1.80
2023-03-27T06:06:12.126Z,1.45
2023-03-27T06:08:39.157Z,1.47
2023-03-27T06:11:13.011Z,1.33
2023-03-27T06:13:42.670Z,1.10
2023-03-27T06:16:10.442Z,1.57
2023-03-27T06:18:37.470Z,1.60
2023-03-27T06:21:04.647Z,1.70
2023-03-27T06:23:32.022Z,1.45
2023-03-27T06:25:59.276Z,1.33
2023-03-27T06:28:26.093Z,1.47
2023-03-27T06:30:53.121Z,1.30
2023-03-27T06:33:22.339Z,1.37
2023-03-27T06:35:53.952Z,1.17
2023-03-27T06:38:24.110Z,1.17
2023-03-27T06:40:53.480Z,1.27
2023-03-27T06:43:22.413Z,1.73
2023-03-27T06:45:50.722Z,1.27
2023-03-27T06:48:21.541Z,1.63
2023-03-27T06:50:51.424Z,1.40
2023-03-27T06:53:27.235Z,1.60
2023-03-27T06:55:55.842Z,1.23
2023-03-27T06:58:22.700Z,1.47
2023-03-27T07:00:50.219Z,1.57
2023-03-27T07:03:18.312Z,1.40
2023-03-27T07:05:48.992Z,1.20
2023-03-27T07:08:24.302Z,1.40
2023-03-27T07:11:10.710Z,1.20
2023-03-27T07:13:40.994Z,1.60
2023-03-27T07:16:09.119Z,1.30
2023-03-27T07:18:38.390Z,1.40
2023-03-27T07:21:05.948Z,1.37
2023-03-27T07:23:32.606Z,2.00
2023-03-27T07:26:00.332Z,1.40
2023-03-27T07:28:29.525Z,1.30
2023-03-27T07:30:56.436Z,1.60
2023-03-27T07:33:23.487Z,1.13
2023-03-27T07:35:52.631Z,1.33
2023-03-27T07:38:19.360Z,1.10
2023-03-27T07:40:46.574Z,1.65
2023-03-27T07:43:14.132Z,0.97
2023-03-27T07:45:43.892Z,1.63
2023-03-27T07:48:18.661Z,1.10
2023-03-27T07:50:51.014Z,1.23
2023-03-27T07:53:33.438Z,1.10
2023-03-27T07:56:03.666Z,1.47
2023-03-27T07:58:32.636Z,1.37
2023-03-27T08:01:04.649Z,1.30
2023-03-27T08:03:32.270Z,1.00
2023-03-27T08:06:00.512Z,1.23
2023-03-27T08:08:28.294Z,1.60
2023-03-27T08:11:02.338Z,1.30
2023-03-27T08:13:29.929Z,1.10
2023-03-27T08:16:13.375Z,1.53
2023-03-27T08:18:40.762Z,1.23
2023-03-27T08:21:08.594Z,1.57
2023-03-27T08:23:37.540Z,0.87
2023-03-27T08:26:09.089Z,1.10
2023-03-27T08:28:37.453Z,1.00
2023-03-27T08:31:13.846Z,1.10
2023-03-27T08:33:44.115Z,1.00
2023-03-27T08:36:14.527Z,0.93
2023-03-27T08:38:43.189Z,1.33
2023-03-27T08:41:28.005Z,1.20
2023-03-27T08:43:57.197Z,1.10
2023-03-27T08:46:28.977Z,1.53
2023-03-27T08:49:09.810Z,1.43
2023-03-27T08:51:52.580Z,1.60
2023-03-27T08:54:26.679Z,1.53
2023-03-27T08:56:55.833Z,1.67
2023-03-27T08:59:25.422Z,1.67
2023-03-27T09:02:16.482Z,1.17
2023-03-27T09:04:51.681Z,1.43
2023-03-27T09:07:39.213Z,1.67
2023-03-27T09:10:21.288Z,1.40
2023-03-27T09:12:54.459Z,1.10
2023-03-27T09:15:32.105Z,1.10
2023-03-27T09:17:59.292Z,1.50
2023-03-27T09:20:33.295Z,1.10
2023-03-27T09:23:13.460Z,1.20
2023-03-27T09:25:47.086Z,0.80
2023-03-27T09:28:30.820Z,1.00
2023-03-27T09:31:18.673Z,1.17
2023-03-27T09:33:48.075Z,0.70
2023-03-27T09:36:14.867Z,1.20
2023-03-27T09:38:50.640Z,0.87
2023-03-27T09:41:43.896Z,1.07
2023-03-27T09:44:15.445Z,0.73
2023-03-27T09:46:52.293Z,1.00
2023-03-27T09:49:20.874Z,0.80
2023-03-27T09:51:55.448Z,1.10
2023-03-27T09:54:28.918Z,0.70
2023-03-27T09:57:05.090Z,0.93
2023-03-27T09:59:39.242Z,0.63
2023-03-27T10:02:27.735Z,1.30
2023-03-27T10:05:12.154Z,1.00
2023-03-27T10:07:42.624Z,0.73
2023-03-27T10:10:12.134Z,0.90
2023-03-27T10:12:40.134Z,0.93
2023-03-27T10:15:30.437Z,0.90
2023-03-27T10:17:57.672Z,0.93
2023-03-27T10:20:27.442Z,0.82
2023-03-27T10:23:04.198Z,0.70
2023-03-27T10:25:34.300Z,0.83
2023-03-27T10:28:17.209Z,1.10
2023-03-27T10:30:44.456Z,1.00
2023-03-27T10:33:14.122Z,0.70
2023-03-27T10:35:45.657Z,1.07
2023-03-27T10:38:17.570Z,1.10
2023-03-27T10:40:49.697Z,0.87
2023-03-27T10:43:37.586Z,0.50
2023-03-27T10:46:11.521Z,1.10
2023-03-27T10:48:57.096Z,0.80
2023-03-27T10:51:46.550Z,0.93
2023-03-27T10:54:26.818Z,1.10
2023-03-27T10:57:08.306Z,0.70
2023-03-27T10:59:48.560Z,0.80
2023-03-27T11:02:34.080Z,0.97
2023-03-27T11:05:11.155Z,0.60
2023-03-27T11:07:40.508Z,0.83
2023-03-27T11:10:19.418Z,0.60
2023-03-27T11:13:00.975Z,0.70
2023-03-27T11:15:33.981Z,0.63
2023-03-27T11:18:00.736Z,0.87
2023-03-27T11:20:51.894Z,0.60
2023-03-27T11:23:30.313Z,0.77
2023-03-27T11:26:02.537Z,2.07
2023-03-27T11:28:39.536Z,0.57
2023-03-27T11:31:19.044Z,1.03
2023-03-27T11:34:00.060Z,0.63
2023-03-27T11:36:51.427Z,1.10
2023-03-27T11:39:30.341Z,0.73
2023-03-27T11:42:00.012Z,0.87
2023-03-27T11:44:30.382Z,0.70
2023-03-27T11:47:07.409Z,0.73
2023-03-27T11:49:54.670Z,0.83
2023-03-27T11:52:22.076Z,0.53
2023-03-27T11:55:09.996Z,0.80
2023-03-27T11:57:50.981Z,0.87
2023-03-27T12:00:47.497Z,0.82
2023-03-27T12:03:28.458Z,0.57
2023-03-27T12:06:16.685Z,0.70
2023-03-27T12:08:45.474Z,0.90
2023-03-27T12:11:14.902Z,1.20
2023-03-27T12:13:58.211Z,4.00
2023-03-27T12:16:47.258Z,3.40
2023-03-27T12:22:39.142Z,2.37
2023-03-27T12:25:30.729Z,2.10
2023-03-27T12:28:40.764Z,1.50
2023-03-27T12:31:26.144Z,1.92
2023-03-27T12:34:06.137Z,2.10
2023-03-27T12:36:39.314Z,2.10
2023-03-27T12:39:24.324Z,2.50
2023-03-27T12:41:56.179Z,2.90
2023-03-27T12:44:31.552Z,2.47
2023-03-27T12:47:26.079Z,2.13
2023-03-27T12:50:27.319Z,3.38
2023-03-27T12:52:53.977Z,3.30
2023-03-27T12:55:22.819Z,3.20
2023-03-27T12:57:52.101Z,3.77
2023-03-27T13:00:26.346Z,3.37
2023-03-27T13:03:04.421Z,3.87
2023-03-27T13:05:49.820Z,3.50
2023-03-27T13:08:18.932Z,3.73
2023-03-27T13:10:51.483Z,3.90
2023-03-27T13:13:30.286Z,3.63
2023-03-27T13:16:24.034Z,3.70
2023-03-27T13:19:05.463Z,4.20
2023-03-27T13:21:56.846Z,4.55
2023-03-27T13:24:42.370Z,5.57
2023-03-27T13:27:30.217Z,5.33
2023-03-27T13:29:58.652Z,4.40
2023-03-27T13:32:38.787Z,4.93
2023-03-27T13:35:21.032Z,4.88
2023-03-27T13:37:50.966Z,4.10
2023-03-27T13:40:27.196Z,4.20
2023-03-27T13:43:01.161Z,4.03
2023-03-27T13:45:55.323Z,3.77
2023-03-27T13:48:40.917Z,3.73
2023-03-27T13:51:51.828Z,3.07
2023-03-27T13:54:44.624Z,2.90
2023-03-27T13:57:17.226Z,1.90
2023-03-27T14:00:03.175Z,1.90
2023-03-27T14:02:54.151Z,1.80
2023-03-27T14:05:56.889Z,1.92
2023-03-27T14:08:52.215Z,1.80
2023-03-27T14:11:27.540Z,1.80
2023-03-27T14:14:13.816Z,1.80
2023-03-27T14:16:44.947Z,1.27
2023-03-27T14:19:45.779Z,1.33
2023-03-27T14:22:23.493Z,1.70
2023-03-27T14:25:02.515Z,1.80
2023-03-27T14:27:34.496Z,1.70
2023-03-27T14:30:07.720Z,1.93
2023-03-27T14:32:35.519Z,2.00
2023-03-27T14:35:04.741Z,1.80
2023-03-27T14:37:39.535Z,2.03
2023-03-27T14:40:29.642Z,1.90
2023-03-27T14:43:00.771Z,2.00
2023-03-27T14:45:37.438Z,1.70
2023-03-27T14:48:10.375Z,2.00
2023-03-27T14:50:40.630Z,2.07
2023-03-27T14:53:14.123Z,1.70
2023-03-27T14:55:42.491Z,1.75
2023-03-27T14:58:18.370Z,2.10
2023-03-27T15:00:51.781Z,1.83
2023-03-27T15:03:23.026Z,1.30
2023-03-27T15:05:57.721Z,1.97
2023-03-27T15:08:25.845Z,1.40
2023-03-27T15:10:54.152Z,1.60
2023-03-27T15:13:24.652Z,1.60
2023-03-27T15:15:57.049Z,1.20
2023-03-27T15:18:37.916Z,1.60
2023-03-27T15:21:21.648Z,1.90
2023-03-27T15:24:01.355Z,1.33
2023-03-27T15:26:34.928Z,2.27
2023-03-27T15:29:13.816Z,1.43
2023-03-27T15:31:43.336Z,2.07
2023-03-27T15:34:18.959Z,1.67
2023-03-27T15:36:50.306Z,1.37
2023-03-27T15:39:22.716Z,1.60
2023-03-27T15:42:02.028Z,1.63
2023-03-27T15:44:32.161Z,1.50
2023-03-27T15:47:00.392Z,1.70
2023-03-27T15:49:36.941Z,1.40
2023-03-27T15:52:32.471Z,1.50
2023-03-27T15:55:03.985Z,1.70
2023-03-27T15:57:31.204Z,1.73
2023-03-27T16:00:08.506Z,1.23
2023-03-27T16:02:36.095Z,1.40
2023-03-27T16:05:08.334Z,1.30
2023-03-27T16:07:42.453Z,1.43
2023-03-27T16:10:11.217Z,1.47
2023-03-27T16:12:51.883Z,1.20
2023-03-27T16:15:36.469Z,1.33
2023-03-27T16:18:19.456Z,1.50
2023-03-27T16:20:46.189Z,1.13
2023-03-27T16:23:15.350Z,1.37
2023-03-27T16:25:44.680Z,1.30
2023-03-27T16:28:13.799Z,1.00
2023-03-27T16:30:41.955Z,1.00
2023-03-27T16:33:17.190Z,1.10
2023-03-27T16:35:45.306Z,1.10
2023-03-27T16:38:15.612Z,1.00
2023-03-27T16:40:43.286Z,1.10
2023-03-27T16:43:13.165Z,0.80
2023-03-27T16:45:40.965Z,0.83
2023-03-27T16:48:08.296Z,1.27
2023-03-27T16:50:35.216Z,1.00
2023-03-27T16:53:01.992Z,1.10
2023-03-27T16:55:29.672Z,0.90
2023-03-27T16:57:56.501Z,1.40
2023-03-27T17:00:26.683Z,1.00
2023-03-27T17:02:53.717Z,1.13
2023-03-27T17:05:21.245Z,1.60
2023-03-27T17:07:48.202Z,1.17
2023-03-27T17:10:15.379Z,1.27
2023-03-27T17:12:44.518Z,1.50
2023-03-27T17:15:15.783Z,1.37
2023-03-27T17:17:42.613Z,1.53
2023-03-27T17:20:10.501Z,1.47
2023-03-27T17:22:37.262Z,1.30
2023-03-27T17:25:07.146Z,1.47
2023-03-27T17:27:36.882Z,1.40
2023-03-27T17:30:04.934Z,1.70
2023-03-27T17:32:31.726Z,1.53
2023-03-27T17:35:01.035Z,1.53
2023-03-27T17:37:28.187Z,1.60
2023-03-27T17:39:55.776Z,1.80
2023-03-27T17:42:22.862Z,1.50
2023-03-27T17:44:51.808Z,1.73
2023-03-27T17:47:21.669Z,1.70
2023-03-27T17:49:52.822Z,1.70
2023-03-27T17:52:23.384Z,1.53
2023-03-27T17:54:50.485Z,1.70
2023-03-27T17:57:19.316Z,1.83
2023-03-27T17:59:48.807Z,2.10
2023-03-27T18:02:20.615Z,1.43
2023-03-27T18:04:52.369Z,1.73
2023-03-27T18:07:22.706Z,1.63
2023-03-27T18:09:49.850Z,1.60
2023-03-27T18:12:18.957Z,1.75
2023-03-27T18:14:45.628Z,1.47
2023-03-27T18:17:15.863Z,1.27
2023-03-27T18:19:42.496Z,1.17
2023-03-27T18:22:09.187Z,1.77
2023-03-27T18:24:36.291Z,1.20
2023-03-27T18:27:02.996Z,1.50
2023-03-27T18:29:31.108Z,1.30
2023-03-27T18:32:04.727Z,1.38
2023-03-27T18:34:31.414Z,1.30
2023-03-27T18:36:58.172Z,1.40
2023-03-27T18:39:24.872Z,1.10
2023-03-27T18:41:58.627Z,1.10
2023-03-27T18:44:25.420Z,0.87
2023-03-27T18:46:52.200Z,1.00
2023-03-27T18:49:24.844Z,1.10
2023-03-27T18:51:52.343Z,1.20
2023-03-27T18:54:19.018Z,1.00
2023-03-27T18:56:45.921Z,0.90
2023-03-27T18:59:14.453Z,1.00
2023-03-27T19:01:41.304Z,1.10
2023-03-27T19:04:09.682Z,1.00
2023-03-27T19:06:39.045Z,0.90
2023-03-27T19:09:05.727Z,1.10
2023-03-27T19:11:32.451Z,1.00
2023-03-27T19:13:59.164Z,1.07
2023-03-27T19:16:25.943Z,1.17
2023-03-27T19:18:52.666Z,1.00
2023-03-27T19:21:21.472Z,1.33
2023-03-27T19:23:48.580Z,1.30
2023-03-27T19:26:17.219Z,1.03
2023-03-27T19:28:47.755Z,1.40
2023-03-27T19:31:19.383Z,1.60
2023-03-27T19:33:46.101Z,1.40
2023-03-27T19:36:12.926Z,1.13
2023-03-27T19:38:39.637Z,0.90
2023-03-27T19:41:14.209Z,1.17
2023-03-27T19:43:40.894Z,1.00
2023-03-27T19:46:16.277Z,1.00
2023-03-27T19:48:50.122Z,0.90
2023-03-27T19:51:16.867Z,0.80
2023-03-27T19:53:43.611Z,1.07
2023-03-27T19:56:10.733Z,0.93
2023-03-27T19:58:39.678Z,1.10
2023-03-27T20:01:09.065Z,0.90
2023-03-27T20:03:38.384Z,1.00
2023-03-27T20:06:12.920Z,0.80
2023-03-27T20:08:42.115Z,0.70
2023-03-27T20:11:11.154Z,0.83
2023-03-27T20:13:49.083Z,1.00
2023-03-27T20:16:21.509Z,0.80
2023-03-27T20:18:55.402Z,0.80
2023-03-27T20:21:25.792Z,0.60
2023-03-27T20:23:55.538Z,0.90
2023-03-27T20:26:23.693Z,0.73
2023-03-27T20:28:51.106Z,0.80
2023-03-27T20:31:21.600Z,0.60
2023-03-27T20:33:48.675Z,0.57
2023-03-27T20:36:23.231Z,0.90
2023-03-27T20:38:52.615Z,0.70
2023-03-27T20:41:20.299Z,0.82
2023-03-27T20:43:48.856Z,0.60
2023-03-27T20:46:15.633Z,0.53
2023-03-27T20:48:54.157Z,0.80
2023-03-27T20:51:23.943Z,0.90
2023-03-27T20:53:55.828Z,0.70
2023-03-27T20:56:23.361Z,0.67
2023-03-27T20:58:51.412Z,0.87
2023-03-27T21:01:20.672Z,0.80
2023-03-27T21:03:50.093Z,1.13
2023-03-27T21:06:19.830Z,1.03
2023-03-27T21:08:47.399Z,0.80
2023-03-27T21:11:14.524Z,0.87
2023-03-27T21:13:41.382Z,0.70
2023-03-27T21:16:08.830Z,0.90
2023-03-27T21:18:38.006Z,0.90
2023-03-27T21:21:05.265Z,0.97
2023-03-27T21:23:36.947Z,0.90
2023-03-27T21:26:03.752Z,0.80
2023-03-27T21:28:32.644Z,0.90
2023-03-27T21:30:59.623Z,0.83
2023-03-27T21:33:26.442Z,0.80
2023-03-27T21:35:55.548Z,0.90
2023-03-27T21:38:22.262Z,0.90
2023-03-27T21:40:49.046Z,0.70
2023-03-27T21:43:16.034Z,0.70
2023-03-27T21:45:46.592Z,1.03
2023-03-27T21:48:13.338Z,0.60
2023-03-27T21:50:40.267Z,0.60
2023-03-27T21:53:06.955Z,0.90
2023-03-27T21:55:38.509Z,0.80
2023-03-27T21:58:06.300Z,0.77
2023-03-27T22:00:36.093Z,0.80
2023-03-27T22:03:03.006Z,1.00
2023-03-27T22:05:29.779Z,0.80
2023-03-27T22:07:57.650Z,0.87
2023-03-27T22:10:24.315Z,0.73
2023-03-27T22:12:50.981Z,0.90
2023-03-27T22:15:19.788Z,0.87
2023-03-27T22:17:46.575Z,1.20
2023-03-27T22:20:13.307Z,0.80
2023-03-27T22:22:40.090Z,1.00
2023-03-27T22:25:07.337Z,0.70
2023-03-27T22:27:34.320Z,1.00
2023-03-27T22:30:01.093Z,0.90
2023-03-27T22:32:30.297Z,0.77
2023-03-27T22:34:57.005Z,0.80
2023-03-27T22:37:25.162Z,1.20
2023-03-27T22:39:54.390Z,0.83
2023-03-27T22:42:23.431Z,1.03
2023-03-27T22:44:50.291Z,0.80
2023-03-27T22:47:16.960Z,1.10
2023-03-27T22:49:43.690Z,1.27
2023-03-27T22:52:10.349Z,1.00
2023-03-27T22:54:36.978Z,0.93
2023-03-27T22:57:03.821Z,1.07
2023-03-27T22:59:33.044Z,0.80
2023-03-27T23:01:59.695Z,0.93
2023-03-27T23:04:27.795Z,1.10
2023-03-27T23:06:57.060Z,1.10
2023-03-27T23:09:23.762Z,1.08
2023-03-27T23:11:52.915Z,0.90
2023-03-27T23:14:19.555Z,1.00
2023-03-27T23:16:46.305Z,1.10
2023-03-27T23:19:12.973Z,1.10
2023-03-27T23:21:39.616Z,0.73
2023-03-27T23:24:08.883Z,1.03
2023-03-27T23:26:35.580Z,1.00
2023-03-27T23:29:02.323Z,1.10
2023-03-27T23:31:28.997Z,0.80
2023-03-27T23:33:55.772Z,0.77
2023-03-27T23:36:25.077Z,0.80
2023-03-27T23:38:54.163Z,1.00
2023-03-27T23:41:21.154Z,1.07
2023-03-27T23:43:48.594Z,0.80
2023-03-27T23:46:20.013Z,1.00
2023-03-27T23:48:48.897Z,1.00
2023-03-27T23:51:19.232Z,0.97
2023-03-27T23:53:48.386Z,1.20
2023-03-27T23:56:15.597Z,1.03
2023-03-27T23:58:42.798Z,1.30
